createdAt,value
2023-10-01T00:02:56.702Z,6.00
2023-10-01T00:07:52.668Z,5.13
2023-10-01T00:12:48.935Z,5.63
2023-10-01T00:17:45.721Z,5.60
2023-10-01T00:22:40.548Z,5.00
2023-10-01T00:27:33.916Z,5.82
2023-10-01T00:32:29.906Z,5.05
2023-10-01T00:37:23.923Z,4.82
2023-10-01T00:42:18.650Z,4.85
2023-10-01T00:47:12.345Z,4.78
2023-10-01T00:52:11.409Z,4.97
2023-10-01T00:57:04.994Z,4.97
2023-10-01T01:01:59.929Z,5.40
2023-10-01T01:06:53.736Z,5.32
2023-10-01T01:11:49.300Z,5.40
2023-10-01T01:16:42.955Z,5.32
2023-10-01T01:21:43.422Z,5.00
2023-10-01T01:26:39.168Z,5.75
2023-10-01T01:31:46.937Z,5.38
2023-10-01T01:36:41.047Z,4.68
2023-10-01T01:41:34.322Z,5.22
2023-10-01T01:46:29.145Z,4.72
2023-10-01T01:51:22.728Z,4.60
2023-10-01T01:56:18.152Z,4.88
2023-10-01T02:01:19.117Z,4.80
2023-10-01T02:06:15.116Z,4.53
2023-10-01T02:11:10.361Z,4.53
2023-10-01T02:16:20.321Z,4.82
2023-10-01T02:21:18.584Z,4.82
2023-10-01T02:26:14.251Z,5.43
2023-10-01T02:31:09.697Z,5.25
2023-10-01T02:36:03.832Z,5.45
2023-10-01T02:40:59.750Z,4.80
2023-10-01T02:45:53.357Z,5.72
2023-10-01T02:50:53.338Z,4.97
2023-10-01T02:55:47.729Z,5.72
2023-10-01T03:00:44.141Z,4.90
2023-10-01T03:05:37.889Z,5.28
2023-10-01T03:10:33.344Z,4.78
2023-10-01T03:15:29.087Z,4.80
2023-10-01T03:20:38.615Z,4.53
2023-10-01T03:25:42.203Z,5.47
2023-10-01T03:30:36.047Z,5.38
2023-10-01T03:35:31.510Z,5.13
2023-10-01T03:40:25.047Z,3.95
2023-10-01T03:45:38.649Z,5.28
2023-10-01T03:50:33.593Z,5.65
2023-10-01T03:55:31.588Z,5.78
2023-10-01T04:00:35.595Z,5.65
2023-10-01T04:05:35.077Z,6.50
2023-10-01T04:10:31.938Z,5.15
2023-10-01T04:15:30.369Z,5.00
2023-10-01T04:20:23.808Z,4.30
2023-10-01T04:25:19.833Z,5.20
2023-10-01T04:30:16.027Z,5.10
2023-10-01T04:35:21.433Z,5.38
2023-10-01T04:40:29.648Z,5.22
2023-10-01T04:45:37.541Z,5.82
2023-10-01T04:50:31.721Z,5.03
2023-10-01T04:55:28.240Z,5.75
2023-10-01T05:00:24.174Z,4.78
2023-10-01T05:05:27.603Z,5.70
2023-10-01T05:10:23.930Z,4.68
2023-10-01T05:15:26.105Z,5.40
2023-10-01T05:20:21.549Z,5.38
2023-10-01T05:25:15.132Z,5.38
2023-10-01T05:30:29.924Z,5.18
2023-10-01T05:35:24.764Z,5.30
2023-10-01T05:40:18.873Z,5.15
2023-10-01T05:45:20.157Z,5.45
2023-10-01T05:50:15.711Z,7.65
2023-10-01T05:55:13.796Z,6.68
2023-10-01T06:00:18.143Z,7.82
2023-10-01T06:05:26.499Z,7.22
2023-10-01T06:10:27.835Z,7.43
2023-10-01T06:15:22.190Z,8.57
2023-10-01T06:20:25.033Z,7.45
2023-10-01T06:25:38.814Z,7.30
2023-10-01T06:30:32.298Z,8.32
2023-10-01T06:35:27.160Z,8.68
2023-10-01T06:40:31.960Z,7.53
2023-10-01T06:45:40.040Z,7.40
2023-10-01T06:50:34.780Z,7.78
2023-10-01T06:55:31.996Z,7.57
2023-10-01T07:00:33.320Z,7.03
2023-10-01T07:05:26.601Z,7.63
2023-10-01T07:10:21.783Z,7.78
2023-10-01T07:15:17.674Z,8.98
2023-10-01T07:20:21.013Z,8.07
2023-10-01T07:25:29.768Z,8.57
2023-10-01T07:30:40.915Z,7.53
2023-10-01T07:35:41.869Z,8.48
2023-10-01T07:40:53.894Z,8.32
2023-10-01T07:45:57.229Z,8.13
2023-10-01T07:50:52.890Z,8.45
2023-10-01T07:55:47.911Z,7.57
2023-10-01T08:00:44.618Z,7.07
2023-10-01T08:05:40.236Z,8.00
2023-10-01T08:10:38.638Z,9.30
2023-10-01T08:15:32.957Z,8.80
2023-10-01T08:20:33.479Z,8.30
2023-10-01T08:25:29.168Z,8.13
2023-10-01T08:30:40.189Z,9.30
2023-10-01T08:35:35.675Z,8.45
2023-10-01T08:40:30.924Z,7.50
2023-10-01T08:45:39.097Z,7.72
2023-10-01T08:50:37.915Z,8.18
2023-10-01T08:55:42.426Z,8.55
2023-10-01T09:00:35.855Z,9.90
2023-10-01T09:05:29.260Z,8.40
2023-10-01T09:10:22.939Z,6.97
2023-10-01T09:15:29.650Z,7.10
2023-10-01T09:20:40.910Z,9.02
2023-10-01T09:25:39.791Z,7.85
2023-10-01T09:30:36.763Z,8.82
2023-10-01T09:35:51.211Z,7.63
2023-10-01T09:40:47.331Z,7.72
2023-10-01T09:45:42.881Z,8.20
2023-10-01T09:50:41.290Z,9.10
2023-10-01T09:55:48.668Z,8.20
2023-10-01T10:00:44.000Z,6.93
2023-10-01T10:05:40.742Z,7.90
2023-10-01T10:10:35.385Z,7.63
2023-10-01T10:15:59.092Z,8.82
2023-10-01T10:21:05.629Z,8.32
2023-10-01T10:26:17.429Z,7.97
2023-10-01T10:31:35.429Z,7.65
2023-10-01T10:36:51.826Z,8.30
2023-10-01T10:42:29.413Z,8.60
2023-10-01T10:47:24.905Z,8.32
2023-10-01T10:52:33.026Z,8.40
2023-10-01T10:57:27.789Z,8.18
2023-10-01T11:02:21.185Z,7.45
2023-10-01T11:07:20.503Z,8.75
2023-10-01T11:12:23.043Z,8.85
2023-10-01T11:17:23.389Z,7.38
2023-10-01T11:22:24.145Z,7.80
2023-10-01T11:27:24.226Z,6.38
2023-10-01T11:32:18.710Z,6.10
2023-10-01T11:37:19.530Z,6.95
2023-10-01T11:42:21.654Z,6.30
2023-10-01T11:47:32.662Z,6.82
2023-10-01T11:52:27.765Z,7.72
2023-10-01T11:57:24.541Z,7.53
2023-10-01T12:02:21.871Z,8.02
2023-10-01T12:07:18.379Z,7.38
2023-10-01T12:12:14.540Z,7.80
2023-10-01T12:17:07.998Z,7.05
2023-10-01T12:22:10.735Z,6.88
2023-10-01T12:27:08.656Z,7.63
2023-10-01T12:32:08.329Z,7.10
2023-10-01T12:37:09.050Z,6.22
2023-10-01T12:42:06.086Z,6.20
2023-10-01T12:47:03.711Z,6.18
2023-10-01T12:51:57.259Z,6.13
2023-10-01T12:57:04.104Z,6.40
2023-10-01T13:01:57.911Z,5.22
2023-10-01T13:06:54.851Z,5.38
2023-10-01T13:11:52.155Z,5.13
2023-10-01T13:16:51.873Z,5.60
2023-10-01T13:21:45.213Z,6.60
2023-10-01T13:26:42.346Z,6.22
2023-10-01T13:31:41.813Z,5.47
2023-10-01T13:36:48.566Z,5.30
2023-10-01T13:42:00.473Z,6.10
2023-10-01T13:47:13.303Z,5.18
2023-10-01T13:52:24.285Z,6.05
2023-10-01T13:57:36.577Z,6.22
2023-10-01T14:02:47.289Z,5.50
2023-10-01T14:07:57.995Z,5.65
2023-10-01T14:13:01.374Z,5.90
2023-10-01T14:17:57.476Z,5.45
2023-10-01T14:22:51.360Z,6.10
2023-10-01T14:27:44.853Z,6.20
2023-10-01T14:32:39.622Z,4.97
2023-10-01T14:37:33.992Z,6.70
2023-10-01T14:42:27.836Z,6.43
2023-10-01T14:47:21.148Z,6.00
2023-10-01T14:52:24.296Z,6.07
2023-10-01T14:57:18.502Z,5.95
2023-10-01T15:02:16.685Z,5.70
2023-10-01T15:07:10.326Z,6.95
2023-10-01T15:12:11.913Z,6.15
2023-10-01T15:17:18.867Z,6.75
2023-10-01T15:22:14.381Z,6.28
2023-10-01T15:27:09.269Z,6.07
2023-10-01T15:32:16.259Z,6.63
2023-10-01T15:37:13.294Z,6.55
2023-10-01T15:42:16.564Z,5.80
2023-10-01T15:47:10.240Z,6.15
2023-10-01T15:52:11.591Z,6.65
2023-10-01T15:57:05.754Z,6.63
2023-10-01T16:02:07.845Z,6.60
2023-10-01T16:07:04.881Z,6.43
2023-10-01T16:11:58.220Z,5.55
2023-10-01T16:16:51.863Z,7.03
2023-10-01T16:21:46.621Z,7.05
2023-10-01T16:26:45.690Z,8.02
2023-10-01T16:31:39.110Z,7.70
2023-10-01T16:36:39.000Z,6.63
2023-10-01T16:41:34.150Z,6.57
2023-10-01T16:46:33.092Z,6.30
2023-10-01T16:51:30.092Z,6.70
2023-10-01T16:56:26.541Z,7.82
2023-10-01T17:01:27.760Z,7.55
2023-10-01T17:06:24.974Z,7.20
2023-10-01T17:11:19.924Z,6.65
2023-10-01T17:16:26.212Z,7.20
2023-10-01T17:21:30.110Z,7.13
2023-10-01T17:26:30.284Z,6.95
2023-10-01T17:31:28.761Z,8.68
2023-10-01T17:36:26.945Z,6.93
2023-10-01T17:41:21.116Z,7.20
2023-10-01T17:46:14.881Z,7.97
2023-10-01T17:51:12.294Z,7.22
2023-10-01T17:56:21.426Z,7.72
2023-10-01T18:01:16.424Z,7.93
2023-10-01T18:06:22.148Z,9.27
2023-10-01T18:11:19.353Z,9.50
2023-10-01T18:16:26.919Z,10.32
2023-10-01T18:21:24.073Z,10.20
2023-10-01T18:26:21.436Z,7.55
2023-10-01T18:31:18.897Z,7.82
2023-10-01T18:36:22.183Z,8.40
2023-10-01T18:41:21.699Z,9.07
2023-10-01T18:46:20.039Z,9.80
2023-10-01T18:51:15.460Z,10.27
2023-10-01T18:56:10.331Z,9.45
2023-10-01T19:01:05.997Z,9.80
2023-10-01T19:06:02.202Z,10.38
2023-10-01T19:11:01.149Z,11.27
2023-10-01T19:15:59.540Z,14.10
2023-10-01T19:20:56.811Z,21.95
2023-10-01T19:25:50.289Z,38.47
2023-10-01T19:30:51.491Z,8.88
2023-10-01T19:35:52.940Z,8.65
2023-10-01T19:40:50.661Z,12.77
2023-10-01T19:45:44.167Z,30.70
2023-10-01T19:50:44.521Z,21.08
2023-10-01T19:55:39.706Z,7.13
2023-10-01T20:00:35.798Z,8.25
2023-10-01T20:05:29.088Z,7.15
2023-10-01T20:10:33.033Z,7.82
2023-10-01T20:15:29.930Z,8.80
2023-10-01T20:20:32.590Z,6.72
2023-10-01T20:25:34.006Z,6.97
2023-10-01T20:30:32.498Z,6.78
2023-10-01T20:35:29.387Z,7.53
2023-10-01T20:40:23.059Z,6.28
2023-10-01T20:45:24.476Z,6.88
2023-10-01T20:50:43.339Z,6.22
2023-10-01T20:55:36.767Z,6.80
2023-10-01T21:00:39.078Z,6.50
2023-10-01T21:05:38.074Z,6.80
2023-10-01T21:10:36.670Z,5.63
2023-10-01T21:15:29.982Z,5.93
2023-10-01T21:20:23.825Z,6.80
2023-10-01T21:25:25.707Z,6.68
2023-10-01T21:30:19.646Z,7.18
2023-10-01T21:35:19.042Z,7.22
2023-10-01T21:40:24.124Z,7.40
2023-10-01T21:45:41.945Z,6.38
2023-10-01T21:50:38.671Z,7.70
2023-10-01T21:55:36.199Z,9.05
2023-10-01T22:01:02.210Z,8.20
2023-10-01T22:05:57.182Z,6.68
2023-10-01T22:10:52.354Z,6.45
2023-10-01T22:15:45.858Z,6.63
2023-10-01T22:20:41.538Z,7.55
2023-10-01T22:25:35.244Z,6.88
2023-10-01T22:30:31.694Z,7.32
2023-10-01T22:35:26.497Z,7.13
2023-10-01T22:40:19.985Z,7.72
2023-10-01T22:45:27.691Z,6.40
2023-10-01T22:50:22.959Z,7.10
2023-10-01T22:55:17.450Z,6.32
2023-10-01T23:00:13.660Z,6.90
2023-10-01T23:05:07.868Z,6.75
2023-10-01T23:10:03.129Z,6.97
2023-10-01T23:14:59.305Z,7.25
2023-10-01T23:19:54.540Z,7.10
2023-10-01T23:24:53.044Z,6.35
2023-10-01T23:29:48.109Z,6.70
2023-10-01T23:34:45.205Z,6.35
2023-10-01T23:39:40.208Z,6.68
2023-10-01T23:44:53.977Z,6.72
2023-10-01T23:49:49.515Z,6.97
2023-10-01T23:54:47.488Z,6.32
2023-10-01T23:59:49.054Z,7.32
